Luverne, MN

7:40 PM CST on November 20, 2017 (GMT -0600)
Luverne

Weather History for KLYV - December, 2012

Change the Weather History Date:

Tuesday, December 11, 2012

  Actual Average (KPQN) Record (KPQN)
Temperature  
Mean Temperature 24 °F -  
Max Temperature 32 °F 30 °F 42 °F (2001)
Min Temperature 15 °F 15 °F -16 °F (2013)
Degree Days  
Heating Degree Days 42    
Moisture  
Dew Point 18 °F    
Average Humidity 81    
Maximum Humidity 93    
Minimum Humidity 69    
Precipitation  
Precipitation 0.00 in - - ()
Sea Level Pressure  
Sea Level Pressure 29.86 in    
Wind  
Wind Speed 7 mph (West)    
Max Wind Speed 15 mph    
Max Gust Speed 17 mph    
Visibility 10 miles    
Events Snow    
Averages and records for this station are not official NWS values.
T = Trace of Precipitation, MM = Missing Value Source: NWS Daily Summary

Daily Weather History Graph

Daily Weather History Graph

Search for Another Location

Airport or City:

Trip Planner

Search our weather history database for the weather conditions in past years. The results will help you decide how hot, cold, wet, or windy it might be!

Date:

Astronomy

Dec. 11, 2012 Rise Set
Actual Time 7:48 AM CST 4:48 PM CST
Civil Twilight 7:15 AM CST 5:20 PM CST
Nautical Twilight 6:39 AM CST 5:57 PM CST
Astronomical Twilight 6:04 AM CST 6:31 PM CST
Moon 5:43 AM CST (12/11) 3:29 PM CST (12/11)
Length of Visible Light 10h 04m
Length of Day
8h 59m
Waning Crescent, 4% of the Moon is Illuminated
Dec 11
Waning Crescent
Dec 13
New
Dec 19
First Quarter
Dec 28
Full
Jan 4
Last Quarter

Hourly Weather History & Observations

Time (CST) Temp. Windchill Dew Point Humidity Pressure Visibility Wind Dir Wind Speed Gust Speed Precip Events Conditions
12:15 AM 19.4 °F 10.4 °F 12.2 °F 74% 29.80 in 10.0 mi West 6.9 mph - N/A   Clear
12:35 AM 15.8 °F 8.6 °F 12.2 °F 86% 29.80 in 10.0 mi West 4.6 mph - N/A   Clear
12:55 AM 19.4 °F 7.2 °F 14.0 °F 80% 29.80 in 10.0 mi West 11.5 mph - N/A   Clear
1:15 AM 19.4 °F 7.9 °F 12.2 °F 74% 29.80 in 10.0 mi WNW 10.4 mph - N/A   Clear
1:35 AM 17.6 °F 5.7 °F 12.2 °F 79% 29.81 in 10.0 mi WNW 10.4 mph - N/A   Scattered Clouds
1:55 AM 19.4 °F 7.2 °F 14.0 °F 80% 29.82 in 10.0 mi West 11.5 mph - N/A   Scattered Clouds
2:15 AM 19.4 °F 8.6 °F 14.0 °F 80% 29.82 in 10.0 mi WNW 9.2 mph - N/A   Clear
2:35 AM 19.4 °F 8.6 °F 14.0 °F 80% 29.83 in 10.0 mi West 9.2 mph - N/A   Clear
2:55 AM 17.6 °F 6.4 °F 12.2 °F 79% 29.83 in 10.0 mi West 9.2 mph - N/A   Clear
3:15 AM 19.4 °F 10.4 °F 12.2 °F 74% 29.84 in 10.0 mi West 6.9 mph - N/A   Clear
3:35 AM 15.8 °F 8.6 °F 10.4 °F 79% 29.84 in 10.0 mi West 4.6 mph - N/A   Scattered Clouds
3:54 AM 15.8 °F 10.2 °F 12.2 °F 86% 29.84 in 10.0 mi West 3.5 mph - N/A   Mostly Cloudy
4:15 AM 15.8 °F - 12.2 °F 86% 29.84 in 10.0 mi Calm Calm - N/A   Overcast
4:35 AM 19.4 °F 11.5 °F 14.0 °F 80% 29.84 in 10.0 mi West 5.8 mph - N/A   Overcast
4:55 AM 19.4 °F 9.5 °F 15.8 °F 86% 29.83 in 10.0 mi West 8.1 mph - N/A   Overcast
5:15 AM 21.2 °F 11.7 °F 17.6 °F 86% 29.83 in 10.0 mi West 8.1 mph - N/A   Mostly Cloudy
5:35 AM 21.2 °F 12.6 °F 17.6 °F 86% 29.83 in 10.0 mi West 6.9 mph - N/A   Overcast
5:55 AM 21.2 °F 13.6 °F 15.8 °F 80% 29.83 in 10.0 mi West 5.8 mph - N/A   Mostly Cloudy
6:14 AM 19.4 °F 12.8 °F 14.0 °F 80% 29.83 in 10.0 mi West 4.6 mph - N/A   Mostly Cloudy
6:35 AM 19.4 °F 12.8 °F 14.0 °F 80% 29.83 in 10.0 mi WSW 4.6 mph - N/A   Scattered Clouds
6:54 AM 15.8 °F 8.6 °F 12.2 °F 86% 29.84 in 10.0 mi SW 4.6 mph - N/A   Scattered Clouds
7:15 AM 19.4 °F 9.5 °F 14.0 °F 80% 29.84 in 10.0 mi WSW 8.1 mph - N/A   Mostly Cloudy
7:35 AM 21.2 °F 11.7 °F 17.6 °F 86% 29.84 in 10.0 mi WSW 8.1 mph - N/A   Overcast
7:54 AM 23.0 °F 12.4 °F 19.4 °F 86% 29.84 in 10.0 mi West 10.4 mph - N/A Snow Light Snow
8:15 AM 24.8 °F 14.0 °F 21.2 °F 86% 29.84 in 10.0 mi WSW 11.5 mph - N/A   Overcast
8:35 AM 26.6 °F 16.2 °F 21.2 °F 80% 29.84 in 10.0 mi WSW 11.5 mph - N/A   Overcast
8:55 AM 26.6 °F 15.7 °F 21.2 °F 80% 29.85 in 10.0 mi West 12.7 mph - N/A   Overcast
9:14 AM 26.6 °F 15.7 °F 23.0 °F 86% 29.86 in 10.0 mi West 12.7 mph - N/A   Overcast
9:35 AM 26.6 °F 16.2 °F 23.0 °F 86% 29.86 in 10.0 mi West 11.5 mph 17.3 mph N/A   Mostly Cloudy
9:55 AM 28.4 °F 17.0 °F 23.0 °F 80% 29.86 in 10.0 mi West 15.0 mph - N/A   Scattered Clouds
10:15 AM 28.4 °F 18.0 °F 23.0 °F 80% 29.87 in 10.0 mi West 12.7 mph - N/A   Scattered Clouds
10:35 AM 28.4 °F 18.0 °F 23.0 °F 80% 29.87 in 10.0 mi West 12.7 mph - N/A   Scattered Clouds
11:15 AM 30.2 °F 19.8 °F 23.0 °F 75% 29.88 in 10.0 mi West 13.8 mph - N/A   Scattered Clouds
11:35 AM 30.2 °F 20.2 °F 23.0 °F 75% 29.87 in 10.0 mi West 12.7 mph - N/A   Scattered Clouds
11:55 AM 32.0 °F 22.1 °F 23.0 °F 69% 29.87 in 10.0 mi West 13.8 mph - N/A   Clear
12:15 PM 32.0 °F 23.6 °F 23.0 °F 69% 29.87 in 10.0 mi West 10.4 mph - N/A   Clear
12:35 PM 32.0 °F 22.5 °F 23.0 °F 69% 29.87 in 10.0 mi West 12.7 mph - N/A   Clear
12:55 PM 32.0 °F 22.5 °F 23.0 °F 69% 29.87 in 10.0 mi WNW 12.7 mph - N/A   Scattered Clouds
1:14 PM 32.0 °F 23.0 °F 23.0 °F 69% 29.87 in 10.0 mi NW 11.5 mph - N/A   Mostly Cloudy
1:35 PM 32.0 °F 22.5 °F 23.0 °F 69% 29.87 in 10.0 mi WNW 12.7 mph 16.1 mph N/A   Overcast
1:55 PM 32.0 °F 22.5 °F 23.0 °F 69% 29.87 in 10.0 mi West 12.7 mph - N/A   Overcast
2:15 PM 32.0 °F 22.1 °F 23.0 °F 69% 29.87 in 10.0 mi West 13.8 mph - N/A   Mostly Cloudy
2:35 PM 32.0 °F 23.0 °F 23.0 °F 69% 29.87 in 10.0 mi West 11.5 mph - N/A   Overcast
2:54 PM 32.0 °F 23.6 °F 24.8 °F 75% 29.87 in 10.0 mi West 10.4 mph - N/A   Overcast
3:15 PM 32.0 °F 24.2 °F 24.8 °F 75% 29.87 in 10.0 mi West 9.2 mph - N/A   Mostly Cloudy
3:35 PM 32.0 °F 24.2 °F 24.8 °F 75% 29.88 in 10.0 mi West 9.2 mph - N/A   Mostly Cloudy
3:55 PM 32.0 °F 26.4 °F 24.8 °F 75% 29.88 in 10.0 mi West 5.8 mph - N/A   Scattered Clouds
4:15 PM 32.0 °F 28.7 °F 24.8 °F 75% 29.89 in 10.0 mi West 3.5 mph - N/A   Scattered Clouds
4:34 PM 30.2 °F 26.7 °F 23.0 °F 75% 29.89 in 10.0 mi West 3.5 mph - N/A   Scattered Clouds
4:55 PM 28.4 °F - 23.0 °F 80% 29.89 in 10.0 mi Calm Calm - N/A   Clear
5:15 PM 26.6 °F - 21.2 °F 80% 29.89 in 10.0 mi Calm Calm - N/A   Clear
5:35 PM 24.8 °F - 23.0 °F 93% 29.89 in 10.0 mi Calm Calm - N/A   Clear
5:55 PM 23.0 °F - 21.2 °F 93% 29.89 in 10.0 mi Calm Calm - N/A   Clear
6:14 PM 23.0 °F - 21.2 °F 93% 29.89 in 10.0 mi Calm Calm - N/A   Clear
6:35 PM 21.2 °F - 19.4 °F 93% 29.89 in 10.0 mi Calm Calm - N/A   Clear
6:55 PM 21.2 °F - 19.4 °F 93% 29.89 in 10.0 mi Calm Calm - N/A   Clear
7:14 PM 21.2 °F - 19.4 °F 93% 29.89 in 10.0 mi Calm Calm - N/A   Scattered Clouds
7:35 PM 19.4 °F - 17.6 °F 93% 29.89 in 10.0 mi Calm Calm - N/A   Scattered Clouds
7:55 PM 19.4 °F - 17.6 °F 93% 29.89 in 10.0 mi Calm Calm - N/A   Clear
8:15 PM 19.4 °F - 15.8 °F 86% 29.90 in 10.0 mi Calm Calm - N/A   Clear
8:35 PM 19.4 °F - 15.8 °F 86% 29.89 in 10.0 mi Calm Calm - N/A   Clear
8:55 PM 19.4 °F - 15.8 °F 86% 29.89 in 10.0 mi Calm Calm - N/A   Clear
9:15 PM 19.4 °F - 15.8 °F 86% 29.89 in 10.0 mi Calm Calm - N/A   Clear
9:35 PM 19.4 °F - 17.6 °F 93% 29.89 in 10.0 mi Calm Calm - N/A   Clear
9:55 PM 17.6 °F - 14.0 °F 86% 29.88 in 10.0 mi Calm Calm - N/A   Clear
10:15 PM 17.6 °F - 15.8 °F 93% 29.88 in 10.0 mi Calm Calm - N/A   Clear
10:35 PM 17.6 °F - 14.0 °F 86% 29.88 in 10.0 mi Calm Calm - N/A   Clear
10:55 PM 17.6 °F - 14.0 °F 86% 29.87 in 10.0 mi Calm Calm - N/A   Clear
11:15 PM 17.6 °F - 14.0 °F 86% 29.88 in 10.0 mi Calm Calm - N/A   Clear
11:35 PM 17.6 °F - 14.0 °F 86% 29.88 in 10.0 mi Calm Calm - N/A   Clear
11:55 PM 17.6 °F - 14.0 °F 86% 29.87 in 10.0 mi Calm Calm - N/A   Clear